Time;durP1;ratioP1;P1;durP2;ratioP2;P2;SDS_P1;SDS_P2;PMS_P1;PMS_P2;Temp;Humidity;BMP_temperature;BMP_pressure;BME280_temperature;BME280_humidity;BME280_pressure;Samples;Min_cycle;Max_cycle;Signal;HPM_P1;HPM_P2
2023/12/29 06:44:39;;;;;;;9.32;1.67;;;;;;;;;;10536693;28;20400;-84
2023/12/29 06:49:41;;;;;;;7.28;2.03;;;;;;;;;;10505845;28;20111;-84
2023/12/29 06:54:42;;;;;;;5.45;1.50;;;;;;;;;;10531818;22;20055;-83
2023/12/29 06:59:43;;;;;;;5.65;1.42;;;;;;;;;;10332116;28;20209;-86
2023/12/29 07:04:44;;;;;;;3.58;1.27;;;;;;;;;;10329897;28;20030;-85
2023/12/29 07:09:45;;;;;;;8.02;2.40;;;;;;;;;;10339537;28;20035;-86
2023/12/29 07:14:46;;;;;;;;;;;;;;;;;;10349214;28;20030;-86
2023/12/29 07:19:48;;;;;;;5.72;1.70;;;;;;;;;;10354735;28;19973;-87
2023/12/29 07:24:50;;;;;;;3.88;1.48;;;;;;;;;;10360641;28;20026;-87
2023/12/29 07:29:51;;;;;;;5.35;1.50;;;;;;;;;;10340796;28;20031;-85
2023/12/29 07:34:53;;;;;;;4.03;1.23;;;;;;;;;;10348250;28;20014;-85
2023/12/29 07:39:54;;;;;;;;;;;;;;;;;;10371758;28;20061;-86
2023/12/29 07:44:56;;;;;;;4.05;1.80;;;;;;;;;;10358199;28;20266;-87
2023/12/29 07:49:57;;;;;;;7.13;1.80;;;;;;;;;;10337383;28;20082;-86
2023/12/29 07:54:58;;;;;;;4.43;1.55;;;;;;;;;;10316406;28;20053;-86
2023/12/29 07:59:59;;;;;;;6.38;1.55;;;;;;;;;;10308220;28;20027;-86
2023/12/29 08:05:35;;;;;;;3.92;1.20;;;;;;;;;;10303467;28;20027;-86
2023/12/29 08:11:09;;;;;;;7.25;1.40;;;;;;;;;;10303482;28;20498;-86
2023/12/29 08:16:19;;;;;;;3.05;1.20;;;;;;;;;;10340277;28;20506;-86
2023/12/29 08:21:22;;;;;;;6.40;1.40;;;;;;;;;;10296894;28;20416;-85
2023/12/29 08:26:26;;;;;;;4.20;1.40;;;;;;;;;;10301437;28;20037;-84
2023/12/29 08:31:42;;;;;;;4.07;1.55;;;;;;;;;;10303284;28;20372;-86
2023/12/29 08:43:11;;;;;;;3.65;1.02;;;;;;;;;;10306857;28;20030;-87
2023/12/29 08:48:38;;;;;;;3.92;0.90;;;;;;;;;;10302183;28;20117;-87
2023/12/29 08:53:40;;;;;;;3.58;1.40;;;;;;;;;;10306306;28;20042;-85
2023/12/29 08:58:42;;;;;;;4.18;1.42;;;;;;;;;;10306379;28;20047;-87
2023/12/29 09:04:11;;;;;;;5.18;1.10;;;;;;;;;;10297364;28;20138;-87
2023/12/29 09:09:39;;;;;;;4.35;1.15;;;;;;;;;;10336759;28;20066;-85
2023/12/29 09:14:52;;;;;;;3.72;1.02;;;;;;;;;;10335806;28;20125;-85
2023/12/29 09:20:00;;;;;;;3.92;1.30;;;;;;;;;;10334805;28;20066;-85
2023/12/29 09:25:05;;;;;;;2.70;1.30;;;;;;;;;;10337129;28;20045;-85
2023/12/29 09:30:08;;;;;;;2.90;1.50;;;;;;;;;;10335507;28;20038;-86
2023/12/29 09:35:33;;;;;;;3.22;1.20;;;;;;;;;;10312419;28;20045;-85
2023/12/29 09:40:37;;;;;;;1.70;0.80;;;;;;;;;;10311152;28;20034;-84
2023/12/29 09:46:04;;;;;;;2.08;1.00;;;;;;;;;;10312961;28;20033;-84
2023/12/29 09:51:06;;;;;;;2.72;1.60;;;;;;;;;;10313974;28;20038;-85
2023/12/29 09:56:24;;;;;;;2.80;1.50;;;;;;;;;;10306646;28;20045;-85
2023/12/29 10:01:36;;;;;;;2.75;1.17;;;;;;;;;;10304265;28;20030;-84
2023/12/29 10:06:41;;;;;;;2.20;0.80;;;;;;;;;;10304412;28;20039;-85
2023/12/29 10:11:45;;;;;;;2.28;1.20;;;;;;;;;;10313234;28;20027;-84
2023/12/29 10:16:49;;;;;;;3.40;1.20;;;;;;;;;;10316294;28;20130;-85
2023/12/29 10:22:02;;;;;;;5.80;3.45;;;;;;;;;;10317436;28;20066;-85
2023/12/29 10:27:32;;;;;;;1.90;0.93;;;;;;;;;;10322648;28;20090;-85
2023/12/29 10:32:41;;;;;;;1.67;0.70;;;;;;;;;;10311497;28;20035;-85
2023/12/29 10:37:42;;;;;;;2.03;0.73;;;;;;;;;;10312493;28;20086;-84
2023/12/29 10:43:00;;;;;;;2.17;0.93;;;;;;;;;;10316028;28;20034;-86
2023/12/29 10:48:38;;;;;;;2.28;1.15;;;;;;;;;;10320951;28;20031;-85
2023/12/29 10:53:42;;;;;;;4.00;1.80;;;;;;;;;;10337872;28;20031;-85
2023/12/29 10:59:05;;;;;;;2.22;1.38;;;;;;;;;;10329012;28;20106;-86
2023/12/29 11:04:29;;;;;;;4.10;1.25;;;;;;;;;;10321887;28;20046;-85
2023/12/29 11:09:30;;;;;;;2.80;1.00;;;;;;;;;;10314469;28;20039;-84
2023/12/29 11:14:35;;;;;;;2.63;1.40;;;;;;;;;;10305878;28;20031;-84
2023/12/29 11:19:36;;;;;;;4.35;1.45;;;;;;;;;;10300592;28;20031;-84
2023/12/29 11:24:37;;;;;;;;;;;;;;;;;;10307419;28;20058;-83
2023/12/29 11:29:38;;;;;;;2.65;1.33;;;;;;;;;;10310750;28;19914;-85
2023/12/29 11:34:56;;;;;;;2.35;1.25;;;;;;;;;;10317403;28;20055;-84
2023/12/29 11:40:10;;;;;;;4.20;0.80;;;;;;;;;;10319984;28;20428;-85
2023/12/29 11:45:26;;;;;;;2.05;0.90;;;;;;;;;;10315243;28;20030;-85
2023/12/29 11:50:28;;;;;;;5.03;2.70;;;;;;;;;;10315523;28;20123;-85
2023/12/29 11:56:00;;;;;;;4.00;1.42;;;;;;;;;;10318302;28;20050;-85
2023/12/29 12:01:08;;;;;;;3.17;1.38;;;;;;;;;;10318371;28;20049;-85
2023/12/29 12:06:11;;;;;;;2.97;1.33;;;;;;;;;;10316262;28;20023;-86
2023/12/29 12:11:37;;;;;;;2.00;1.10;;;;;;;;;;10316140;28;20027;-84
2023/12/29 12:16:53;;;;;;;3.13;1.70;;;;;;;;;;10317262;28;20098;-83
2023/12/29 12:21:57;;;;;;;3.80;1.85;;;;;;;;;;10317906;28;20019;-84
2023/12/29 12:27:20;;;;;;;3.20;1.70;;;;;;;;;;10301113;28;20031;-84
2023/12/29 12:32:22;;;;;;;5.05;2.33;;;;;;;;;;10303941;28;20098;-84
2023/12/29 12:37:24;;;;;;;3.53;1.40;;;;;;;;;;10302790;28;20546;-83
2023/12/29 12:42:30;;;;;;;3.83;1.40;;;;;;;;;;10304863;28;20034;-83
2023/12/29 12:47:42;;;;;;;3.85;1.50;;;;;;;;;;10304675;28;20114;-82
2023/12/29 12:52:44;;;;;;;3.63;1.25;;;;;;;;;;10301964;28;20163;-83
2023/12/29 12:57:46;;;;;;;3.58;1.38;;;;;;;;;;10353421;23;20038;-83
2023/12/29 13:02:47;;;;;;;3.53;1.60;;;;;;;;;;10364033;28;20030;-79
2023/12/29 13:07:48;;;;;;;;;;;;;;;;;;10365397;28;20034;-81
2023/12/29 13:12:55;;;;;;;3.58;1.35;;;;;;;;;;10351397;28;19962;-82
2023/12/29 13:17:56;;;;;;;2.25;1.25;;;;;;;;;;10366423;28;20030;-82
2023/12/29 13:22:57;;;;;;;3.42;1.58;;;;;;;;;;10365715;28;20029;-82
2023/12/29 13:28:03;;;;;;;2.42;1.00;;;;;;;;;;10364495;28;20153;-84
2023/12/29 13:33:13;;;;;;;1.85;1.00;;;;;;;;;;10352278;28;20035;-84
2023/12/29 13:38:20;;;;;;;1.90;0.87;;;;;;;;;;10363668;28;20470;-83
2023/12/29 13:43:23;;;;;;;2.72;1.00;;;;;;;;;;10348387;28;20026;-85
2023/12/29 13:48:25;;;;;;;2.65;1.33;;;;;;;;;;10361066;28;20056;-84
2023/12/29 13:53:26;;;;;;;3.08;1.00;;;;;;;;;;10362769;28;20030;-84
2023/12/29 13:58:27;;;;;;;;;;;;;;;;;;10364650;28;20107;-84
2023/12/29 14:03:34;;;;;;;3.42;1.10;;;;;;;;;;10348179;28;19905;-84
2023/12/29 14:08:35;;;;;;;2.88;1.40;;;;;;;;;;10361781;28;20106;-83
2023/12/29 14:13:36;;;;;;;;;;;;;;;;;;10364272;28;20062;-85
2023/12/29 14:18:47;;;;;;;10.13;7.43;;;;;;;;;;10347213;28;19905;-85
2023/12/29 14:24:01;;;;;;;2.40;0.80;;;;;;;;;;10360510;28;20403;-85
2023/12/29 14:29:08;;;;;;;1.83;1.25;;;;;;;;;;10387124;28;20098;-85
2023/12/29 14:34:10;;;;;;;2.20;1.08;;;;;;;;;;10390093;28;20035;-85
2023/12/29 14:39:11;;;;;;;4.07;1.38;;;;;;;;;;10364106;28;20113;-86
2023/12/29 14:44:12;;;;;;;;;;;;;;;;;;10362489;28;20448;-85
2023/12/29 14:49:13;;;;;;;2.35;1.42;;;;;;;;;;10345890;28;20003;-85
2023/12/29 14:54:14;;;;;;;;;;;;;;;;;;10363671;28;20079;-85
2023/12/29 14:59:15;;;;;;;4.07;1.23;;;;;;;;;;10346435;28;19928;-86
2023/12/29 15:04:16;;;;;;;2.03;1.10;;;;;;;;;;10367095;28;20062;-85
2023/12/29 15:09:18;;;;;;;;;;;;;;;;;;10370975;28;20030;-85
2023/12/29 15:14:19;;;;;;;2.85;1.50;;;;;;;;;;10354796;28;19936;-85
2023/12/29 15:19:20;;;;;;;4.47;1.25;;;;;;;;;;10373484;28;20026;-85
2023/12/29 15:24:22;;;;;;;3.00;0.90;;;;;;;;;;10370298;28;20027;-85
2023/12/29 15:29:23;;;;;;;;;;;;;;;;;;10369449;28;20494;-85
2023/12/29 15:34:24;;;;;;;2.53;1.27;;;;;;;;;;10350413;28;19916;-85
2023/12/29 15:39:26;;;;;;;2.53;1.10;;;;;;;;;;10351737;28;20049;-86
2023/12/29 15:44:27;;;;;;;1.73;1.10;;;;;;;;;;10366498;28;20462;-86
2023/12/29 15:49:28;;;;;;;;;;;;;;;;;;10365998;28;20038;-86
2023/12/29 15:54:29;;;;;;;2.85;1.45;;;;;;;;;;10348988;28;19914;-84
2023/12/29 15:59:30;;;;;;;2.60;1.70;;;;;;;;;;10367705;28;20050;-84
2023/12/29 16:04:31;;;;;;;2.55;1.00;;;;;;;;;;10368488;28;20129;-85
2023/12/29 16:09:32;;;;;;;;;;;;;;;;;;10368513;28;20133;-84
2023/12/29 16:14:34;;;;;;;2.10;1.00;;;;;;;;;;10349689;28;19926;-84
2023/12/29 16:19:35;;;;;;;3.53;1.50;;;;;;;;;;10368291;28;20040;-83
2023/12/29 16:24:38;;;;;;;5.28;2.40;;;;;;;;;;10362101;28;20121;-81
2023/12/29 16:29:42;;;;;;;2.60;1.52;;;;;;;;;;10361746;28;20108;-81
2023/12/29 16:34:43;;;;;;;2.50;1.40;;;;;;;;;;10362557;28;20026;-81
2023/12/29 16:39:44;;;;;;;3.00;1.88;;;;;;;;;;10363173;28;20132;-82
2023/12/29 16:44:45;;;;;;;4.13;2.10;;;;;;;;;;10365956;28;20053;-81
2023/12/29 16:49:46;;;;;;;3.80;1.85;;;;;;;;;;10364112;28;20035;-81
2023/12/29 16:54:47;;;;;;;3.80;2.10;;;;;;;;;;10361637;28;20034;-81
2023/12/29 16:59:48;;;;;;;2.88;1.92;;;;;;;;;;10362622;28;20041;-81
2023/12/29 17:04:49;;;;;;;2.45;1.58;;;;;;;;;;10346070;28;20026;-82
2023/12/29 17:09:50;;;;;;;2.80;1.40;;;;;;;;;;10362416;28;20034;-81
2023/12/29 17:14:51;;;;;;;2.83;1.27;;;;;;;;;;10361385;28;20027;-81
2023/12/29 17:19:52;;;;;;;2.47;1.02;;;;;;;;;;10359311;28;20417;-81
2023/12/29 17:24:53;;;;;;;2.20;0.95;;;;;;;;;;10370658;28;20034;-85
2023/12/29 17:29:54;;;;;;;2.75;1.85;;;;;;;;;;10400839;28;20045;-86
2023/12/29 17:35:45;;;;;;;2.20;1.50;;;;;;;;;;10349587;28;20117;-87
2023/12/29 18:04:21;;;;;;;5.28;3.38;;;;;;;;;;10378006;28;20085;-86
2023/12/29 18:09:48;;;;;;;2.47;1.58;;;;;;;;;;10298232;28;20054;-87
2023/12/29 18:14:52;;;;;;;4.72;2.05;;;;;;;;;;10301229;28;20111;-86
2023/12/29 18:19:53;;;;;;;3.90;1.60;;;;;;;;;;10364891;28;20022;-88
2023/12/29 18:24:54;;;;;;;3.72;1.52;;;;;;;;;;10385248;28;20026;-87
2023/12/29 18:29:55;;;;;;;4.15;1.50;;;;;;;;;;10358187;28;20455;-87
2023/12/29 18:34:56;;;;;;;4.28;1.58;;;;;;;;;;10356588;28;20201;-87
2023/12/29 18:39:57;;;;;;;4.75;1.55;;;;;;;;;;10357256;28;20085;-87
2023/12/29 18:44:59;;;;;;;4.10;1.42;;;;;;;;;;10356849;28;20054;-86
2023/12/29 18:50:00;;;;;;;5.05;1.27;;;;;;;;;;10358130;28;20114;-88
2023/12/29 18:55:01;;;;;;;2.80;1.35;;;;;;;;;;10358805;28;20132;-87
2023/12/29 19:00:04;;;;;;;4.03;1.58;;;;;;;;;;10371322;28;20042;-86
2023/12/29 19:05:05;;;;;;;3.50;1.35;;;;;;;;;;10371355;28;20030;-86
2023/12/29 19:10:08;;;;;;;6.88;2.00;;;;;;;;;;10371084;28;20030;-86
2023/12/29 19:15:09;;;;;;;4.80;1.70;;;;;;;;;;10372006;28;20060;-85
2023/12/29 19:20:13;;;;;;;4.00;1.50;;;;;;;;;;10371428;28;20034;-85
2023/12/29 19:25:15;;;;;;;4.32;1.70;;;;;;;;;;10372420;28;20085;-85
2023/12/29 19:30:18;;;;;;;3.88;1.35;;;;;;;;;;10369550;28;20033;-85
2023/12/29 19:35:19;;;;;;;3.97;1.02;;;;;;;;;;10366552;28;20026;-86
2023/12/29 19:40:20;;;;;;;2.38;0.98;;;;;;;;;;10379502;28;20018;-86
2023/12/29 19:45:21;;;;;;;3.58;1.00;;;;;;;;;;10356937;28;20041;-87
2023/12/29 19:50:22;;;;;;;2.28;0.77;;;;;;;;;;10357261;28;20037;-87
2023/12/29 19:55:23;;;;;;;3.47;0.98;;;;;;;;;;10360988;28;20126;-86
2023/12/29 20:00:24;;;;;;;1.75;1.00;;;;;;;;;;10364744;28;20099;-85
2023/12/29 20:05:26;;;;;;;6.82;4.10;;;;;;;;;;10375042;28;20046;-85
